KLBT

Lumberton Regional Airport

Lumberton, North Carolina, USA
METAR KLBT 170754Z AUTO 00000KT 10SM CLR M02/M02 A3029 RMK AO2 SLP256 T10171022
Observed Flight Rules
Dec-17 @ 07:54 UTC (21 minutes ago) Visual Flight Rules
Wind Visibility Clouds
Calm 10 miles
  • Clear skies
Temperatures Readings
Current -2°C / 28°F
Dewpoint -2°C / 28°F
Humidity 100%
Altimeter 30.29" Hg
Pressure 1025.6 hPa
Elevation 37
METAR KLBT 170754Z AUTO 00000KT 10SM CLR M02/M02 A3029 RMK AO2 SLP256 T10171022
Observed Flight Rules
Dec-17 @ 07:54 UTC
(21 minutes ago)
VFR
Wind Visibility
Calm 10 miles
Clouds
  • Clear skies
Temperature Dewpoint
-2°C / 28°F -2°C / 28°F
Humidity Altimeter Pressure
100% 30.29" Hg 1025.6 hPa